createdAt,value
2022-07-27T00:03:13.563Z,100586.03
2022-07-27T00:08:15.140Z,100584.28
2022-07-27T00:13:17.264Z,100583.19
2022-07-27T00:18:19.102Z,100576.81
2022-07-27T00:23:20.679Z,100581.03
2022-07-27T00:28:22.106Z,100581.34
2022-07-27T00:33:23.623Z,100578.84
2022-07-27T00:38:25.198Z,100584.84
2022-07-27T00:43:26.767Z,100590.75
2022-07-27T00:48:28.333Z,100589.00
2022-07-27T00:53:29.911Z,100592.59
2022-07-27T00:58:31.851Z,100589.91
2022-07-27T01:03:33.375Z,100588.88
2022-07-27T01:08:35.864Z,100584.25
2022-07-27T01:13:37.732Z,100583.81
2022-07-27T01:18:40.127Z,100587.19
2022-07-27T01:23:41.579Z,100580.09
2022-07-27T01:28:43.651Z,100587.56
2022-07-27T01:33:45.232Z,100579.97
2022-07-27T01:38:47.636Z,100570.72
2022-07-27T01:43:49.476Z,100569.34
2022-07-27T01:48:51.082Z,100576.34
2022-07-27T01:53:52.765Z,100572.75
2022-07-27T01:58:54.423Z,100576.59
2022-07-27T02:03:55.996Z,100581.06
2022-07-27T02:08:57.579Z,100583.94
2022-07-27T02:13:59.159Z,100584.84
2022-07-27T02:19:00.710Z,100579.41
2022-07-27T02:24:06.955Z,100582.72
2022-07-27T02:29:08.799Z,100574.13
2022-07-27T02:34:10.651Z,100578.03
2022-07-27T02:39:12.733Z,100588.09
2022-07-27T02:44:15.439Z,100585.47
2022-07-27T02:49:17.047Z,100592.56
2022-07-27T02:54:22.171Z,100588.16
2022-07-27T02:59:23.741Z,100586.94
2022-07-27T03:04:25.666Z,100587.28
2022-07-27T03:09:32.786Z,100588.94
2022-07-27T03:14:35.207Z,100588.59
2022-07-27T03:19:36.736Z,100589.28
2022-07-27T03:24:38.188Z,100597.44
2022-07-27T03:29:39.828Z,100603.72
2022-07-27T03:34:41.275Z,100605.19
2022-07-27T03:39:43.165Z,100600.06
2022-07-27T03:44:44.635Z,100608.34
2022-07-27T03:49:46.107Z,100603.75
2022-07-27T03:54:48.199Z,100603.56
2022-07-27T03:59:49.869Z,100607.41
2022-07-27T04:04:51.348Z,100595.31
2022-07-27T04:09:52.937Z,100604.81
2022-07-27T04:14:54.549Z,100599.81
2022-07-27T04:19:56.145Z,100602.59
2022-07-27T04:24:57.639Z,100611.59
2022-07-27T04:30:00.235Z,100614.50
2022-07-27T04:35:01.683Z,100611.38
2022-07-27T04:40:04.087Z,100611.50
2022-07-27T04:45:06.371Z,100618.28
2022-07-27T04:50:08.241Z,100618.19
2022-07-27T04:55:10.336Z,100619.19
2022-07-27T05:00:12.414Z,100625.59
2022-07-27T05:05:13.865Z,100630.88
2022-07-27T05:10:19.807Z,100642.00
2022-07-27T05:15:22.164Z,100631.53
2022-07-27T05:20:24.408Z,100643.59
2022-07-27T05:25:25.865Z,100655.97
2022-07-27T05:30:27.490Z,100656.88
2022-07-27T05:35:29.670Z,100667.59
2022-07-27T05:40:31.181Z,100670.56
2022-07-27T05:45:32.860Z,100671.50
2022-07-27T05:50:34.489Z,100674.13
2022-07-27T05:55:35.942Z,100683.41
2022-07-27T06:00:37.566Z,100692.94
2022-07-27T06:05:39.098Z,100690.84
2022-07-27T06:10:40.738Z,100691.72
2022-07-27T06:15:42.335Z,100696.41
2022-07-27T06:20:43.823Z,100697.59
2022-07-27T06:25:45.281Z,100700.88
2022-07-27T06:30:47.658Z,100700.91
2022-07-27T06:35:49.227Z,100700.50
2022-07-27T06:40:51.628Z,100706.88
2022-07-27T06:45:53.993Z,100695.09
2022-07-27T06:50:55.595Z,100700.75
2022-07-27T06:55:57.160Z,100689.38
2022-07-27T07:01:00.248Z,100687.88
2022-07-27T07:06:01.980Z,100693.84
2022-07-27T07:11:03.792Z,100708.72
2022-07-27T07:16:05.698Z,100699.72
2022-07-27T07:21:07.335Z,100703.06
2022-07-27T07:26:08.843Z,100711.09
2022-07-27T07:31:10.375Z,100704.97
2022-07-27T07:36:14.295Z,100707.69
2022-07-27T07:41:16.420Z,100699.91
2022-07-27T07:46:17.988Z,100690.81
2022-07-27T07:51:19.637Z,100695.97
2022-07-27T07:56:21.164Z,100705.09
2022-07-27T08:01:25.502Z,100698.25
2022-07-27T08:06:27.131Z,100699.00
2022-07-27T08:11:28.652Z,100696.16
2022-07-27T08:16:30.304Z,100694.16
2022-07-27T08:21:35.210Z,100684.00
2022-07-27T08:26:37.104Z,100696.06
2022-07-27T08:31:51.239Z,100692.66
2022-07-27T08:36:53.341Z,100688.81
2022-07-27T08:41:55.641Z,100683.06
2022-07-27T08:46:58.015Z,100681.25
2022-07-27T08:51:59.994Z,100682.28
2022-07-27T08:57:01.582Z,100692.22
2022-07-27T09:02:05.250Z,100685.75
2022-07-27T09:07:07.009Z,100692.03
2022-07-27T09:12:10.788Z,100680.06
2022-07-27T09:22:51.836Z,100666.13
2022-07-27T09:27:56.279Z,100684.22
2022-07-27T09:33:03.391Z,100680.53
2022-07-27T09:38:22.115Z,100671.75
2022-07-27T09:48:45.282Z,100666.00
2022-07-27T09:53:46.987Z,100668.44
2022-07-27T09:58:50.848Z,100664.66
2022-07-27T10:03:55.135Z,100667.19
2022-07-27T10:08:58.429Z,100676.13
2022-07-27T10:14:00.000Z,100685.34
2022-07-27T10:19:40.004Z,100680.22
2022-07-27T10:24:42.610Z,100673.06
2022-07-27T10:29:44.134Z,100680.66
2022-07-27T10:34:45.587Z,100664.75
2022-07-27T10:39:52.571Z,100669.72
2022-07-27T10:44:55.257Z,100674.28
2022-07-27T10:50:27.836Z,100686.19
2022-07-27T10:55:32.313Z,100672.97
2022-07-27T11:00:53.653Z,100667.53
2022-07-27T11:06:33.470Z,100679.09
2022-07-27T11:11:37.479Z,100663.75
2022-07-27T11:16:52.612Z,100676.84
2022-07-27T11:21:57.886Z,100678.72
2022-07-27T11:27:00.662Z,100664.47
2022-07-27T11:32:18.624Z,100659.06
2022-07-27T11:37:21.579Z,100649.84
2022-07-27T11:42:24.004Z,100656.50
2022-07-27T11:47:25.685Z,100655.81
2022-07-27T11:52:27.155Z,100646.28
2022-07-27T11:57:33.171Z,100637.31
2022-07-27T12:02:34.622Z,100625.66
2022-07-27T12:07:36.313Z,100633.16
2022-07-27T12:12:37.872Z,100641.91
2022-07-27T12:17:41.292Z,100642.56
2022-07-27T12:22:42.821Z,100645.09
2022-07-27T12:27:57.643Z,100633.84
2022-07-27T12:32:59.505Z,100631.88
2022-07-27T12:38:22.967Z,100636.75
2022-07-27T12:43:25.889Z,100632.47
2022-07-27T12:48:37.766Z,100631.78
2022-07-27T12:53:39.333Z,100621.34
2022-07-27T12:58:57.964Z,100619.47
2022-07-27T13:03:59.534Z,100589.56
2022-07-27T13:09:01.027Z,100592.03
2022-07-27T13:14:02.545Z,100588.75
2022-07-27T13:19:04.035Z,100595.25
2022-07-27T13:24:06.181Z,100602.28
2022-07-27T13:29:07.755Z,100595.72
2022-07-27T13:34:09.290Z,100607.31
2022-07-27T13:39:11.647Z,100607.13
2022-07-27T13:44:35.290Z,100604.91
2022-07-27T13:49:36.328Z,100605.94
2022-07-27T13:54:37.888Z,100601.88
2022-07-27T13:59:39.546Z,100605.69
2022-07-27T14:04:41.047Z,100600.28
2022-07-27T14:09:43.966Z,100602.78
2022-07-27T14:14:45.482Z,100596.06
2022-07-27T14:19:46.990Z,100588.78
2022-07-27T14:24:48.583Z,100595.72
2022-07-27T14:29:50.136Z,100592.16
2022-07-27T14:34:51.663Z,100597.75
2022-07-27T14:39:53.128Z,100592.06
2022-07-27T14:44:54.671Z,100587.28
2022-07-27T14:49:56.304Z,100570.78
2022-07-27T14:54:57.890Z,100579.75
2022-07-27T14:59:59.574Z,100573.88
2022-07-27T15:05:01.148Z,100573.16
2022-07-27T15:10:04.790Z,100568.78
2022-07-27T15:15:09.435Z,100568.59
2022-07-27T15:20:11.479Z,100577.13
2022-07-27T15:25:13.101Z,100562.94
2022-07-27T15:30:14.627Z,100563.09
2022-07-27T15:35:16.176Z,100553.16
2022-07-27T15:40:17.679Z,100558.00
2022-07-27T15:45:21.923Z,100555.63
2022-07-27T15:50:23.710Z,100548.41
2022-07-27T15:55:25.202Z,100545.13
2022-07-27T16:00:26.950Z,100538.69
2022-07-27T16:05:30.419Z,100530.66
2022-07-27T16:10:31.891Z,100519.94
2022-07-27T16:15:34.581Z,100510.63
2022-07-27T16:20:36.206Z,100506.84
2022-07-27T16:26:01.280Z,100511.59
2022-07-27T16:30:59.257Z,100512.47
2022-07-27T16:36:00.849Z,100515.41
2022-07-27T16:41:02.737Z,100522.66
2022-07-27T16:46:05.609Z,100520.59
2022-07-27T16:51:07.578Z,100503.59
2022-07-27T16:56:10.018Z,100508.56
2022-07-27T17:01:15.077Z,100503.16
2022-07-27T17:06:25.114Z,100505.25
2022-07-27T17:11:26.598Z,100494.66
2022-07-27T17:16:28.445Z,100495.53
2022-07-27T17:21:29.992Z,100493.03
2022-07-27T17:26:31.511Z,100497.38
2022-07-27T17:31:33.144Z,100504.19
2022-07-27T17:36:34.728Z,100513.09
2022-07-27T17:41:36.400Z,100515.19
2022-07-27T17:46:39.021Z,100520.97
2022-07-27T17:51:40.652Z,100518.94
2022-07-27T17:56:42.179Z,100523.88
2022-07-27T18:01:47.506Z,100536.09
2022-07-27T18:06:50.072Z,100540.34
2022-07-27T18:11:52.781Z,100549.94
2022-07-27T18:16:54.405Z,100542.81
2022-07-27T18:21:55.931Z,100544.81
2022-07-27T18:26:57.427Z,100545.56
2022-07-27T18:31:58.888Z,100546.75
2022-07-27T18:37:00.373Z,100549.16
2022-07-27T18:42:01.884Z,100554.66
2022-07-27T18:47:03.407Z,100557.25
2022-07-27T18:52:05.524Z,100560.59
2022-07-27T18:57:07.071Z,100563.28
2022-07-27T19:02:08.733Z,100568.75
2022-07-27T19:07:10.589Z,100573.22
2022-07-27T19:12:15.394Z,100579.16
2022-07-27T19:17:17.400Z,100587.56
2022-07-27T19:22:19.319Z,100593.69
2022-07-27T19:27:20.887Z,100588.47
2022-07-27T19:32:22.504Z,100596.75
2022-07-27T19:37:24.049Z,100596.94
2022-07-27T19:42:25.507Z,100605.16
2022-07-27T19:47:27.031Z,100600.94
2022-07-27T19:52:28.479Z,100609.72
2022-07-27T19:57:29.998Z,100609.63
2022-07-27T20:02:31.611Z,100607.28
2022-07-27T20:07:33.191Z,100617.31
2022-07-27T20:12:34.830Z,100624.38
2022-07-27T20:17:36.304Z,100628.97
2022-07-27T20:22:38.211Z,100631.50
2022-07-27T20:27:39.813Z,100636.38
2022-07-27T20:32:41.495Z,100628.91
2022-07-27T20:37:45.524Z,100624.56
2022-07-27T20:42:47.037Z,100628.22
2022-07-27T20:47:48.539Z,100628.88
2022-07-27T20:52:50.029Z,100635.09
2022-07-27T20:57:51.541Z,100637.88
2022-07-27T21:02:53.270Z,100634.44
2022-07-27T21:07:55.454Z,100632.03
2022-07-27T21:12:57.276Z,100639.78
2022-07-27T21:17:58.832Z,100641.66
2022-07-27T21:23:00.327Z,100648.16
2022-07-27T21:28:01.836Z,100650.59
2022-07-27T21:33:04.151Z,100645.88
2022-07-27T21:38:05.765Z,100651.13
2022-07-27T21:43:07.241Z,100665.84
2022-07-27T21:48:08.802Z,100660.16
2022-07-27T21:53:11.881Z,100657.13
2022-07-27T21:58:13.395Z,100653.81
2022-07-27T22:03:15.054Z,100655.16
2022-07-27T22:08:16.530Z,100649.00
2022-07-27T22:13:18.032Z,100652.31
2022-07-27T22:18:20.737Z,100662.34
2022-07-27T22:23:22.209Z,100659.03
2022-07-27T22:28:25.480Z,100663.81
2022-07-27T22:33:27.898Z,100657.56
2022-07-27T22:38:30.675Z,100666.03
2022-07-27T22:43:32.450Z,100660.84
2022-07-27T22:48:34.476Z,100662.91
2022-07-27T22:53:36.130Z,100667.25
2022-07-27T22:58:37.726Z,100672.66
2022-07-27T23:03:39.466Z,100673.56
2022-07-27T23:08:43.013Z,100670.06
2022-07-27T23:13:46.738Z,100666.84
2022-07-27T23:18:48.259Z,100675.41
2022-07-27T23:23:53.306Z,100674.84
2022-07-27T23:28:56.198Z,100674.75
2022-07-27T23:33:57.787Z,100674.59
2022-07-27T23:38:59.437Z,100681.72
2022-07-27T23:44:01.627Z,100672.69
2022-07-27T23:49:03.268Z,100678.59
2022-07-27T23:54:04.918Z,100684.28
2022-07-27T23:59:06.750Z,100678.53
